Time;durP1;ratioP1;P1;durP2;ratioP2;P2;SDS_P1;SDS_P2;PMS_P1;PMS_P2;Temp;Humidity;BMP_temperature;BMP_pressure;BME280_temperature;BME280_humidity;BME280_pressure;Samples;Min_cycle;Max_cycle;Signal;HPM_P1;HPM_P2
2022/10/13 00:00:09;;;;;;;17.17;12.03;;;;;;;;;;5041772;28;20260;-77
2022/10/13 00:02:38;;;;;;;17.97;12.50;;;;;;;;;;5041113;28;20271;-79
2022/10/13 00:05:04;;;;;;;16.40;12.17;;;;;;;;;;5034356;28;20186;-78
2022/10/13 00:07:31;;;;;;;15.73;12.10;;;;;;;;;;5041060;28;20185;-78
2022/10/13 00:10:02;;;;;;;15.97;11.47;;;;;;;;;;5035466;28;20202;-78
2022/10/13 00:12:28;;;;;;;18.40;12.87;;;;;;;;;;5037466;28;20252;-78
2022/10/13 00:14:54;;;;;;;16.90;12.57;;;;;;;;;;5038658;28;20243;-78
2022/10/13 00:17:20;;;;;;;15.70;11.53;;;;;;;;;;5039001;28;20186;-78
2022/10/13 00:19:46;;;;;;;15.20;11.17;;;;;;;;;;5047558;28;20243;-77
2022/10/13 00:22:13;;;;;;;13.13;11.00;;;;;;;;;;5044971;28;20201;-78
2022/10/13 00:24:40;;;;;;;18.43;13.10;;;;;;;;;;5047499;28;20633;-78
2022/10/13 00:27:06;;;;;;;13.70;11.37;;;;;;;;;;5047212;28;20754;-78
2022/10/13 00:29:34;;;;;;;17.57;11.57;;;;;;;;;;5044948;28;20548;-78
2022/10/13 00:32:00;;;;;;;16.43;11.67;;;;;;;;;;5026775;28;20210;-78
2022/10/13 00:34:26;;;;;;;15.03;12.03;;;;;;;;;;5043716;28;20181;-78
2022/10/13 00:36:52;;;;;;;12.70;9.43;;;;;;;;;;5047496;28;20635;-78
2022/10/13 00:39:18;;;;;;;16.60;11.73;;;;;;;;;;5047389;28;20192;-78
2022/10/13 00:41:45;;;;;;;18.27;13.10;;;;;;;;;;5039408;28;20181;-78
2022/10/13 00:44:30;;;;;;;15.50;12.00;;;;;;;;;;5039027;28;20224;-77
2022/10/13 00:46:56;;;;;;;20.33;14.53;;;;;;;;;;5042397;28;20214;-78
2022/10/13 00:49:22;;;;;;;20.53;13.30;;;;;;;;;;5033271;28;20186;-78
2022/10/13 00:51:49;;;;;;;14.97;12.93;;;;;;;;;;5036814;28;20192;-78
2022/10/13 00:54:17;;;;;;;15.17;11.27;;;;;;;;;;5047339;28;20210;-78
2022/10/13 00:56:45;;;;;;;18.30;10.20;;;;;;;;;;5044101;28;20186;-78
2022/10/13 00:59:21;;;;;;;15.47;11.57;;;;;;;;;;5041857;28;20234;-78
2022/10/13 01:01:48;;;;;;;17.77;10.93;;;;;;;;;;5044139;28;20178;-77
2022/10/13 01:04:16;;;;;;;16.47;11.73;;;;;;;;;;5036843;28;20217;-78
2022/10/13 01:06:42;;;;;;;18.97;13.97;;;;;;;;;;5041691;28;20202;-78
2022/10/13 01:09:12;;;;;;;15.17;11.80;;;;;;;;;;5045756;28;20260;-77
2022/10/13 01:12:17;;;;;;;19.07;13.03;;;;;;;;;;5046603;28;20190;-79
2022/10/13 01:14:53;;;;;;;16.67;12.33;;;;;;;;;;4948828;28;20607;-78
2022/10/13 01:17:29;;;;;;;15.43;10.90;;;;;;;;;;4959019;28;20555;-78
2022/10/13 01:20:13;;;;;;;14.87;10.80;;;;;;;;;;5008470;28;20289;-78
2022/10/13 01:22:45;;;;;;;12.13;10.13;;;;;;;;;;5060124;28;20237;-78
2022/10/13 01:25:24;;;;;;;13.33;10.17;;;;;;;;;;5039650;28;20170;-78
2022/10/13 01:28:10;;;;;;;15.40;11.33;;;;;;;;;;5049290;28;20784;-79
2022/10/13 01:30:48;;;;;;;18.50;12.80;;;;;;;;;;5039921;28;20181;-78
2022/10/13 01:33:14;;;;;;;15.37;11.70;;;;;;;;;;5045403;28;20243;-78
2022/10/13 01:35:56;;;;;;;18.30;11.90;;;;;;;;;;5051292;28;20779;-78
2022/10/13 01:38:38;;;;;;;18.93;12.57;;;;;;;;;;5051124;28;20249;-78
2022/10/13 01:41:12;;;;;;;14.63;11.57;;;;;;;;;;5049360;28;20204;-77
2022/10/13 01:43:44;;;;;;;17.30;11.83;;;;;;;;;;5048162;28;20700;-78
2022/10/13 01:46:16;;;;;;;20.20;12.77;;;;;;;;;;5047201;28;20174;-78
2022/10/13 01:48:44;;;;;;;15.03;11.60;;;;;;;;;;5053699;28;20181;-77
2022/10/13 01:51:13;;;;;;;16.80;11.53;;;;;;;;;;5048364;28;20174;-77
2022/10/13 01:53:39;;;;;;;16.27;11.77;;;;;;;;;;5036866;28;20705;-78
2022/10/13 01:56:05;;;;;;;19.00;12.97;;;;;;;;;;5046174;28;20186;-78
2022/10/13 01:58:33;;;;;;;15.30;12.27;;;;;;;;;;5042661;28;20213;-78
2022/10/13 02:01:08;;;;;;;16.47;11.50;;;;;;;;;;5047317;28;20750;-78
2022/10/13 02:03:53;;;;;;;13.53;11.40;;;;;;;;;;5057630;28;20735;-78
2022/10/13 02:06:19;;;;;;;16.50;13.07;;;;;;;;;;5058983;28;20612;-78
2022/10/13 02:08:49;;;;;;;18.57;12.00;;;;;;;;;;5044098;28;20183;-78
2022/10/13 02:11:17;;;;;;;16.07;11.83;;;;;;;;;;5044741;28;20181;-78
2022/10/13 02:13:46;;;;;;;15.37;10.80;;;;;;;;;;5044242;28;20205;-78
2022/10/13 02:16:22;;;;;;;15.10;10.97;;;;;;;;;;5047333;28;20269;-77
2022/10/13 02:18:49;;;;;;;13.43;10.87;;;;;;;;;;5032569;28;20926;-78
2022/10/13 02:21:15;;;;;;;17.40;11.40;;;;;;;;;;5034055;28;20273;-78
2022/10/13 02:23:42;;;;;;;15.57;11.73;;;;;;;;;;5043717;28;20209;-78
2022/10/13 02:26:08;;;;;;;14.87;11.67;;;;;;;;;;5036736;28;20178;-79
2022/10/13 02:28:36;;;;;;;14.27;11.17;;;;;;;;;;5046386;28;20182;-78
2022/10/13 02:31:04;;;;;;;13.47;10.60;;;;;;;;;;5048131;28;20186;-78
2022/10/13 02:33:30;;;;;;;18.40;11.67;;;;;;;;;;5048664;28;20332;-78
2022/10/13 02:35:56;;;;;;;16.03;12.30;;;;;;;;;;5050035;28;20185;-77
2022/10/13 02:38:22;;;;;;;15.63;11.80;;;;;;;;;;5050230;28;20182;-78
2022/10/13 02:40:48;;;;;;;13.87;11.17;;;;;;;;;;5049002;28;20173;-78
2022/10/13 02:43:14;;;;;;;12.97;10.60;;;;;;;;;;5038298;28;20225;-78
2022/10/13 02:45:41;;;;;;;13.40;10.87;;;;;;;;;;5035655;28;20182;-78
2022/10/13 02:48:07;;;;;;;15.90;11.73;;;;;;;;;;5034763;28;20187;-78
2022/10/13 02:50:33;;;;;;;19.13;12.30;;;;;;;;;;5033959;28;20278;-78
2022/10/13 02:52:59;;;;;;;15.87;12.30;;;;;;;;;;5041223;28;20202;-78
2022/10/13 02:55:25;;;;;;;16.93;12.37;;;;;;;;;;5048414;28;20180;-78
2022/10/13 02:57:55;;;;;;;19.97;13.00;;;;;;;;;;5048790;28;20185;-78
2022/10/13 03:00:21;;;;;;;17.40;12.63;;;;;;;;;;5042152;28;20174;-79
2022/10/13 03:02:48;;;;;;;15.37;12.43;;;;;;;;;;5045551;28;20237;-78
2022/10/13 03:05:14;;;;;;;20.27;13.17;;;;;;;;;;5033057;28;20182;-78
2022/10/13 03:07:40;;;;;;;15.37;11.77;;;;;;;;;;5049245;28;20798;-78
2022/10/13 03:10:07;;;;;;;13.93;12.17;;;;;;;;;;5049236;28;20178;-78
2022/10/13 03:12:33;;;;;;;16.83;11.77;;;;;;;;;;5045327;28;20614;-78
2022/10/13 03:14:59;;;;;;;14.67;12.23;;;;;;;;;;5044285;28;20194;-78
2022/10/13 03:17:26;;;;;;;14.90;10.97;;;;;;;;;;5048700;28;20259;-78
2022/10/13 03:19:52;;;;;;;17.53;11.73;;;;;;;;;;5049076;28;20289;-77
2022/10/13 03:22:18;;;;;;;15.00;11.80;;;;;;;;;;5041456;28;20823;-78
2022/10/13 03:24:44;;;;;;;15.33;12.90;;;;;;;;;;5045481;28;20185;-77
2022/10/13 03:27:11;;;;;;;17.70;12.83;;;;;;;;;;5049459;28;20269;-78
2022/10/13 03:29:37;;;;;;;15.73;12.30;;;;;;;;;;5043079;28;20178;-78
2022/10/13 03:32:03;;;;;;;14.40;11.60;;;;;;;;;;5037659;28;20199;-78
2022/10/13 03:34:29;;;;;;;17.77;13.00;;;;;;;;;;5033262;28;20173;-78
2022/10/13 03:36:55;;;;;;;19.07;13.40;;;;;;;;;;5048686;28;20192;-78
2022/10/13 03:39:22;;;;;;;18.37;13.10;;;;;;;;;;5044134;28;20179;-78
2022/10/13 03:41:48;;;;;;;19.73;13.63;;;;;;;;;;5045124;28;20209;-77
2022/10/13 03:44:15;;;;;;;23.27;14.63;;;;;;;;;;5046166;28;20700;-79
2022/10/13 03:46:41;;;;;;;20.73;13.83;;;;;;;;;;5052351;28;20189;-79
2022/10/13 03:49:07;;;;;;;21.80;15.03;;;;;;;;;;5044782;28;20174;-77
2022/10/13 03:51:33;;;;;;;26.07;15.20;;;;;;;;;;5045906;28;20680;-77
2022/10/13 03:54:00;;;;;;;20.23;15.30;;;;;;;;;;5048049;28;20188;-77
2022/10/13 03:56:27;;;;;;;21.03;14.83;;;;;;;;;;5032421;28;20221;-77
2022/10/13 03:58:55;;;;;;;22.67;14.80;;;;;;;;;;5042907;28;20223;-77
2022/10/13 04:01:22;;;;;;;25.10;14.70;;;;;;;;;;5042767;28;20174;-78
2022/10/13 04:03:49;;;;;;;17.67;13.63;;;;;;;;;;5043780;28;20201;-77
2022/10/13 04:06:15;;;;;;;21.00;15.10;;;;;;;;;;5042558;28;20721;-77
2022/10/13 04:08:41;;;;;;;19.03;14.33;;;;;;;;;;5042615;28;20273;-78
2022/10/13 04:11:08;;;;;;;19.17;14.57;;;;;;;;;;5047418;28;20178;-78
2022/10/13 04:13:37;;;;;;;21.85;18.05;;;;;;;;;;5031660;28;20809;-78
2022/10/13 04:16:05;;;;;;;17.90;15.53;;;;;;;;;;5042088;28;20625;-78
2022/10/13 04:18:31;;;;;;;16.10;14.30;;;;;;;;;;5038677;28;20197;-78
2022/10/13 04:20:58;;;;;;;16.93;15.13;;;;;;;;;;5045119;28;20248;-78
2022/10/13 04:23:24;;;;;;;16.03;13.80;;;;;;;;;;5041350;28;20228;-78
2022/10/13 04:25:50;;;;;;;18.77;14.60;;;;;;;;;;5028087;28;20170;-78
2022/10/13 04:28:16;;;;;;;17.80;14.30;;;;;;;;;;5036132;28;20162;-78
2022/10/13 04:30:42;;;;;;;18.80;14.40;;;;;;;;;;5042661;28;20554;-78
2022/10/13 04:33:09;;;;;;;20.07;14.33;;;;;;;;;;5035000;28;20229;-78
2022/10/13 04:35:39;;;;;;;23.67;15.20;;;;;;;;;;5042762;28;20185;-78
2022/10/13 04:38:06;;;;;;;31.97;14.73;;;;;;;;;;5042772;28;20701;-80
2022/10/13 04:40:33;;;;;;;21.67;15.90;;;;;;;;;;5041937;28;20745;-78
2022/10/13 04:42:59;;;;;;;17.90;14.67;;;;;;;;;;5040108;28;20205;-77
2022/10/13 04:45:25;;;;;;;27.40;16.97;;;;;;;;;;5042740;28;21872;-78
2022/10/13 04:47:52;;;;;;;19.40;15.93;;;;;;;;;;5040313;28;20182;-78
2022/10/13 04:50:21;;;;;;;21.27;14.63;;;;;;;;;;5035645;28;20777;-78
2022/10/13 04:52:58;;;;;;;39.47;16.53;;;;;;;;;;5049060;28;20600;-77
2022/10/13 04:55:24;;;;;;;19.70;15.50;;;;;;;;;;5042019;28;20178;-75
2022/10/13 04:57:50;;;;;;;19.90;15.50;;;;;;;;;;5042043;28;20213;-79
2022/10/13 05:00:16;;;;;;;21.87;15.00;;;;;;;;;;5038458;28;20834;-79
2022/10/13 05:02:43;;;;;;;19.57;14.80;;;;;;;;;;5050021;28;20240;-79
2022/10/13 05:05:09;;;;;;;16.97;14.53;;;;;;;;;;5034687;28;20183;-79
2022/10/13 05:07:35;;;;;;;18.97;15.67;;;;;;;;;;5035333;28;20205;-79
2022/10/13 05:10:01;;;;;;;19.47;15.57;;;;;;;;;;5037170;28;20178;-79
2022/10/13 05:12:28;;;;;;;18.33;15.63;;;;;;;;;;5038203;28;20432;-79
2022/10/13 05:14:54;;;;;;;20.50;15.40;;;;;;;;;;5039802;28;20179;-79
2022/10/13 05:17:20;;;;;;;17.50;15.30;;;;;;;;;;5038168;28;20269;-79
2022/10/13 05:19:46;;;;;;;20.83;18.60;;;;;;;;;;5043420;28;20452;-79
2022/10/13 05:22:12;;;;;;;18.87;15.70;;;;;;;;;;5041973;28;20209;-79
2022/10/13 05:24:40;;;;;;;19.17;14.77;;;;;;;;;;5045395;28;20182;-80
2022/10/13 05:27:08;;;;;;;19.17;13.93;;;;;;;;;;5044228;28;20209;-79
2022/10/13 05:29:35;;;;;;;18.63;15.07;;;;;;;;;;5039381;28;20174;-79
2022/10/13 05:32:01;;;;;;;20.30;14.90;;;;;;;;;;5038854;28;20639;-79
2022/10/13 05:34:28;;;;;;;19.07;15.23;;;;;;;;;;5038091;28;20205;-79
2022/10/13 05:36:54;;;;;;;19.80;15.40;;;;;;;;;;5036304;28;20185;-79
2022/10/13 05:39:20;;;;;;;19.93;15.50;;;;;;;;;;5050733;28;20273;-79
2022/10/13 05:41:46;;;;;;;23.47;16.70;;;;;;;;;;5039376;28;20186;-79
2022/10/13 05:44:13;;;;;;;21.77;16.23;;;;;;;;;;5037073;28;20202;-80
2022/10/13 05:46:52;;;;;;;20.20;15.27;;;;;;;;;;5046646;28;20288;-81
2022/10/13 05:49:19;;;;;;;19.90;15.37;;;;;;;;;;5045879;28;20193;-80
2022/10/13 05:51:50;;;;;;;22.43;15.57;;;;;;;;;;5048545;28;20181;-79
2022/10/13 05:54:16;;;;;;;23.57;16.43;;;;;;;;;;5047708;28;20247;-78
2022/10/13 05:56:46;;;;;;;21.73;16.23;;;;;;;;;;5039596;28;20201;-77
2022/10/13 05:59:14;;;;;;;21.33;15.80;;;;;;;;;;5026986;28;20736;-78
2022/10/13 06:01:43;;;;;;;22.50;16.90;;;;;;;;;;5040795;28;20200;-78
2022/10/13 06:04:13;;;;;;;24.20;16.57;;;;;;;;;;5046544;28;20201;-77
2022/10/13 06:06:46;;;;;;;21.40;15.83;;;;;;;;;;5044469;28;20197;-79
2022/10/13 06:09:13;;;;;;;21.37;15.90;;;;;;;;;;5044895;28;20212;-78
2022/10/13 06:11:39;;;;;;;20.63;15.73;;;;;;;;;;5045630;28;20177;-79
2022/10/13 06:14:05;;;;;;;19.53;15.13;;;;;;;;;;5039741;28;20182;-78
2022/10/13 06:16:34;;;;;;;23.00;16.00;;;;;;;;;;5038153;28;20193;-78
2022/10/13 06:19:00;;;;;;;23.80;15.73;;;;;;;;;;5039019;28;20170;-78
2022/10/13 06:21:26;;;;;;;26.60;15.87;;;;;;;;;;5043976;28;20174;-78
2022/10/13 06:23:53;;;;;;;21.60;14.73;;;;;;;;;;5043727;28;20220;-78
2022/10/13 06:26:19;;;;;;;27.23;16.23;;;;;;;;;;5053416;28;20197;-78
2022/10/13 06:28:46;;;;;;;18.20;14.43;;;;;;;;;;5036393;28;20183;-79
2022/10/13 06:31:13;;;;;;;21.33;15.73;;;;;;;;;;5042203;28;20256;-79
2022/10/13 06:33:39;;;;;;;16.70;13.20;;;;;;;;;;5042306;28;20577;-78
2022/10/13 06:36:05;;;;;;;20.77;14.77;;;;;;;;;;5039963;28;20206;-78
2022/10/13 06:38:32;;;;;;;20.47;14.27;;;;;;;;;;5042811;28;20239;-79
2022/10/13 06:40:59;;;;;;;21.57;14.97;;;;;;;;;;5043830;28;20902;-76
2022/10/13 06:43:26;;;;;;;19.20;14.87;;;;;;;;;;5040777;28;20222;-78
2022/10/13 06:45:52;;;;;;;22.20;16.93;;;;;;;;;;5035750;28;20161;-80
2022/10/13 06:48:18;;;;;;;23.70;17.10;;;;;;;;;;5037668;28;20154;-79
2022/10/13 06:50:44;;;;;;;21.33;15.50;;;;;;;;;;5043281;28;20223;-80
2022/10/13 06:53:10;;;;;;;21.30;15.03;;;;;;;;;;5036617;28;20198;-79
2022/10/13 06:55:37;;;;;;;19.30;14.80;;;;;;;;;;5041214;28;20179;-78
2022/10/13 06:58:03;;;;;;;17.40;14.23;;;;;;;;;;5037935;28;20218;-79
2022/10/13 07:00:29;;;;;;;22.33;16.33;;;;;;;;;;5037259;28;20214;-79
2022/10/13 07:02:55;;;;;;;21.27;15.83;;;;;;;;;;5039312;28;20299;-79
2022/10/13 07:05:21;;;;;;;19.50;14.03;;;;;;;;;;5042139;28;20190;-79
2022/10/13 07:07:47;;;;;;;19.10;14.33;;;;;;;;;;5038173;28;20189;-78
2022/10/13 07:10:13;;;;;;;19.90;13.90;;;;;;;;;;5051012;28;20205;-78
2022/10/13 07:12:39;;;;;;;23.90;15.67;;;;;;;;;;5047563;28;20205;-79
2022/10/13 07:15:06;;;;;;;23.13;16.00;;;;;;;;;;5034664;28;20181;-78
2022/10/13 07:17:32;;;;;;;23.37;16.53;;;;;;;;;;5040807;28;20209;-78
2022/10/13 07:19:58;;;;;;;23.10;17.13;;;;;;;;;;5044801;28;20177;-78
2022/10/13 07:22:24;;;;;;;25.53;15.93;;;;;;;;;;5050713;28;20202;-78
2022/10/13 07:24:51;;;;;;;27.47;17.83;;;;;;;;;;5043411;28;20174;-78
2022/10/13 07:27:18;;;;;;;23.70;16.43;;;;;;;;;;5039677;28;20189;-78
2022/10/13 07:29:45;;;;;;;23.90;17.70;;;;;;;;;;5036243;28;20185;-78
2022/10/13 07:32:11;;;;;;;21.30;15.83;;;;;;;;;;5037639;28;20280;-78
2022/10/13 07:34:37;;;;;;;20.40;14.53;;;;;;;;;;5035159;28;20182;-78
2022/10/13 07:37:03;;;;;;;21.63;15.73;;;;;;;;;;5042866;28;20257;-77
2022/10/13 07:39:31;;;;;;;25.53;17.13;;;;;;;;;;5024324;28;20186;-79
2022/10/13 07:41:57;;;;;;;19.57;15.50;;;;;;;;;;5032897;28;20197;-79
2022/10/13 07:44:24;;;;;;;24.27;15.40;;;;;;;;;;5043064;28;20206;-77
2022/10/13 07:46:50;;;;;;;19.33;14.90;;;;;;;;;;5034791;28;20294;-77
2022/10/13 07:49:16;;;;;;;25.30;17.13;;;;;;;;;;5039391;28;20194;-77
2022/10/13 07:51:42;;;;;;;22.07;16.43;;;;;;;;;;5037243;28;20292;-78
2022/10/13 07:54:09;;;;;;;20.93;15.60;;;;;;;;;;5038405;28;20515;-78
2022/10/13 07:56:35;;;;;;;20.90;15.20;;;;;;;;;;5040415;28;20635;-77
2022/10/13 07:59:04;;;;;;;20.97;15.83;;;;;;;;;;5046835;28;20182;-77
2022/10/13 08:01:30;;;;;;;21.23;16.07;;;;;;;;;;5040415;28;20217;-78
2022/10/13 08:03:58;;;;;;;21.47;17.10;;;;;;;;;;5037721;28;20214;-78
2022/10/13 08:06:24;;;;;;;23.63;17.53;;;;;;;;;;5033376;28;20246;-78
2022/10/13 08:08:53;;;;;;;26.07;19.07;;;;;;;;;;5046811;28;20186;-78
2022/10/13 08:11:19;;;;;;;22.83;16.70;;;;;;;;;;5047324;28;20264;-78
2022/10/13 08:13:50;;;;;;;24.43;17.57;;;;;;;;;;5038333;28;20576;-77
2022/10/13 08:16:20;;;;;;;23.33;17.60;;;;;;;;;;5047708;28;20684;-78
2022/10/13 08:18:47;;;;;;;24.37;17.97;;;;;;;;;;5046778;28;20220;-77
2022/10/13 08:21:14;;;;;;;24.23;17.43;;;;;;;;;;5048244;28;20197;-77
2022/10/13 08:23:40;;;;;;;23.23;16.90;;;;;;;;;;5039061;28;20206;-78
2022/10/13 08:26:12;;;;;;;22.37;16.50;;;;;;;;;;5032733;28;20177;-78
2022/10/13 08:28:39;;;;;;;20.33;16.27;;;;;;;;;;5047913;28;20174;-77
2022/10/13 08:31:05;;;;;;;22.87;16.73;;;;;;;;;;5046500;28;20180;-77
2022/10/13 08:33:31;;;;;;;21.40;16.53;;;;;;;;;;5045381;28;20225;-77
2022/10/13 08:35:57;;;;;;;23.63;17.00;;;;;;;;;;5035208;28;20193;-78
2022/10/13 08:38:25;;;;;;;24.40;17.23;;;;;;;;;;5038484;28;20175;-78
2022/10/13 08:40:52;;;;;;;20.83;15.50;;;;;;;;;;5033932;28;20191;-78
2022/10/13 08:43:20;;;;;;;22.67;16.17;;;;;;;;;;5047408;28;20583;-78
2022/10/13 08:45:49;;;;;;;24.00;15.83;;;;;;;;;;5046302;28;20202;-77
2022/10/13 08:48:17;;;;;;;20.60;16.17;;;;;;;;;;5047654;28;20659;-78
2022/10/13 08:50:45;;;;;;;21.17;15.70;;;;;;;;;;5042316;28;20182;-78
2022/10/13 08:53:35;;;;;;;24.20;17.90;;;;;;;;;;5042446;28;20197;-78
2022/10/13 08:56:09;;;;;;;26.77;19.93;;;;;;;;;;5043196;28;20229;-79
2022/10/13 08:58:38;;;;;;;27.80;20.37;;;;;;;;;;5038662;28;20181;-83
2022/10/13 09:01:08;;;;;;;28.33;19.37;;;;;;;;;;5047215;28;20190;-80
2022/10/13 09:03:39;;;;;;;30.77;20.40;;;;;;;;;;5043749;28;20217;-78
2022/10/13 09:06:12;;;;;;;26.10;19.30;;;;;;;;;;5039967;28;20213;-78
2022/10/13 09:08:42;;;;;;;24.13;18.20;;;;;;;;;;5041612;28;20832;-78
2022/10/13 09:11:10;;;;;;;26.87;19.27;;;;;;;;;;5045171;28;20573;-79
2022/10/13 09:13:36;;;;;;;26.67;19.20;;;;;;;;;;5062119;28;20213;-78
2022/10/13 09:16:02;;;;;;;26.50;18.83;;;;;;;;;;5053169;28;20194;-78
2022/10/13 09:18:30;;;;;;;26.23;17.87;;;;;;;;;;5047383;28;20166;-78
2022/10/13 09:21:29;;;;;;;29.00;17.03;;;;;;;;;;5046143;28;20201;-78
2022/10/13 09:24:04;;;;;;;24.90;16.40;;;;;;;;;;4998050;28;20316;-79
2022/10/13 09:26:36;;;;;;;21.07;15.47;;;;;;;;;;5044811;28;20175;-78
2022/10/13 09:29:08;;;;;;;20.80;14.67;;;;;;;;;;5041461;28;20220;-78
2022/10/13 09:31:36;;;;;;;25.83;17.97;;;;;;;;;;5047184;28;20190;-77
2022/10/13 09:34:12;;;;;;;25.40;17.97;;;;;;;;;;5047349;28;20182;-77
2022/10/13 09:36:38;;;;;;;23.07;16.83;;;;;;;;;;5049619;28;20692;-77
2022/10/13 09:39:05;;;;;;;22.67;18.10;;;;;;;;;;5050220;28;20177;-78
2022/10/13 09:41:32;;;;;;;25.67;17.23;;;;;;;;;;5043902;28;20258;-77
2022/10/13 09:44:01;;;;;;;24.50;18.17;;;;;;;;;;5048779;28;20225;-77
2022/10/13 09:46:32;;;;;;;26.63;19.97;;;;;;;;;;5043815;28;20182;-77
2022/10/13 09:49:18;;;;;;;24.60;19.50;;;;;;;;;;5050511;28;20202;-77
2022/10/13 09:51:45;;;;;;;28.77;19.57;;;;;;;;;;5046885;28;20202;-77
2022/10/13 09:54:33;;;;;;;24.70;17.50;;;;;;;;;;5048910;28;20743;-78
2022/10/13 09:57:02;;;;;;;22.67;17.17;;;;;;;;;;5048279;28;20174;-77
2022/10/13 09:59:44;;;;;;;22.13;17.17;;;;;;;;;;5038734;28;20265;-78
2022/10/13 10:02:23;;;;;;;22.97;16.07;;;;;;;;;;5042401;28;20201;-78
2022/10/13 10:04:50;;;;;;;43.93;32.73;;;;;;;;;;5047513;28;20307;-77
2022/10/13 10:07:20;;;;;;;131.30;114.90;;;;;;;;;;5046982;28;20178;-78
2022/10/13 10:09:52;;;;;;;63.57;56.70;;;;;;;;;;5048336;28;20219;-77
2022/10/13 10:12:21;;;;;;;42.70;38.13;;;;;;;;;;5048334;28;20199;-78
2022/10/13 10:14:49;;;;;;;35.70;27.60;;;;;;;;;;5045241;28;20193;-77
2022/10/13 10:17:19;;;;;;;37.87;32.47;;;;;;;;;;5048685;28;20269;-78
2022/10/13 10:19:45;;;;;;;22.87;18.73;;;;;;;;;;5046113;28;20891;-78
2022/10/13 10:22:17;;;;;;;21.45;16.35;;;;;;;;;;5050001;28;20205;-78
2022/10/13 10:24:53;;;;;;;22.87;16.47;;;;;;;;;;5047758;28;20430;-78
2022/10/13 10:27:30;;;;;;;27.10;19.70;;;;;;;;;;5049631;28;20687;-78
2022/10/13 10:30:00;;;;;;;22.37;16.57;;;;;;;;;;5041177;28;20708;-79
2022/10/13 10:32:32;;;;;;;23.10;16.63;;;;;;;;;;5016786;28;20565;-77
2022/10/13 10:35:01;;;;;;;20.47;15.80;;;;;;;;;;5038364;28;20721;-78
2022/10/13 10:37:53;;;;;;;25.47;18.37;;;;;;;;;;5045904;28;20190;-77
2022/10/13 10:40:22;;;;;;;23.83;17.10;;;;;;;;;;5043581;28;20186;-77
2022/10/13 10:43:00;;;;;;;22.47;15.03;;;;;;;;;;5044812;28;20943;-77
2022/10/13 10:45:27;;;;;;;22.00;15.60;;;;;;;;;;5048313;28;20162;-77
2022/10/13 10:47:56;;;;;;;20.10;15.67;;;;;;;;;;5042026;28;20727;-77
2022/10/13 10:50:23;;;;;;;19.13;15.13;;;;;;;;;;5025765;28;20189;-77
2022/10/13 10:53:13;;;;;;;18.27;14.70;;;;;;;;;;5040666;28;20204;-77
2022/10/13 10:55:45;;;;;;;18.93;14.37;;;;;;;;;;5059728;28;20193;-77
2022/10/13 10:58:22;;;;;;;21.07;15.30;;;;;;;;;;5043804;28;20189;-77
2022/10/13 11:00:52;;;;;;;23.87;17.40;;;;;;;;;;5049942;28;20189;-77
2022/10/13 11:03:31;;;;;;;17.93;14.10;;;;;;;;;;5030971;28;20210;-78
2022/10/13 11:05:57;;;;;;;19.47;15.37;;;;;;;;;;5039249;28;20201;-78
2022/10/13 11:08:27;;;;;;;18.10;15.33;;;;;;;;;;5024600;28;20611;-77
2022/10/13 11:11:12;;;;;;;18.17;14.43;;;;;;;;;;5037362;28;20204;-78
2022/10/13 11:13:49;;;;;;;19.97;13.93;;;;;;;;;;5043548;28;20217;-78
2022/10/13 11:16:35;;;;;;;17.77;13.40;;;;;;;;;;5036967;28;20194;-77
2022/10/13 11:19:19;;;;;;;20.20;14.63;;;;;;;;;;5037426;28;20193;-78
2022/10/13 11:21:55;;;;;;;20.03;15.50;;;;;;;;;;5046996;28;20209;-78
2022/10/13 11:24:47;;;;;;;24.00;15.70;;;;;;;;;;5051576;28;20295;-78
2022/10/13 11:27:13;;;;;;;25.90;17.50;;;;;;;;;;5036503;28;20204;-78
2022/10/13 11:30:00;;;;;;;22.17;16.67;;;;;;;;;;5044122;28;20185;-78
2022/10/13 11:32:26;;;;;;;22.90;15.83;;;;;;;;;;5043005;28;20194;-78
2022/10/13 11:35:01;;;;;;;18.67;14.40;;;;;;;;;;5045535;28;20227;-78
2022/10/13 11:37:35;;;;;;;20.90;14.77;;;;;;;;;;5041773;28;20324;-78
2022/10/13 11:40:14;;;;;;;18.10;13.57;;;;;;;;;;5037222;28;20173;-78
2022/10/13 11:42:59;;;;;;;20.83;15.50;;;;;;;;;;5044669;28;20202;-78
2022/10/13 11:45:34;;;;;;;22.00;15.37;;;;;;;;;;5041602;28;20205;-80
2022/10/13 11:48:30;;;;;;;22.70;15.60;;;;;;;;;;5036311;28;20219;-79
2022/10/13 11:50:56;;;;;;;21.30;16.07;;;;;;;;;;5029040;28;20185;-85
2022/10/13 11:53:26;;;;;;;19.67;14.77;;;;;;;;;;5035221;28;20202;-78
2022/10/13 11:55:57;;;;;;;19.93;14.40;;;;;;;;;;5035072;28;20214;-78
2022/10/13 11:58:23;;;;;;;18.97;13.80;;;;;;;;;;5035965;28;20239;-78
2022/10/13 12:00:58;;;;;;;23.77;14.60;;;;;;;;;;5047931;28;20177;-78
2022/10/13 12:03:31;;;;;;;19.60;13.53;;;;;;;;;;5042704;28;20222;-78
2022/10/13 12:06:00;;;;;;;17.20;13.53;;;;;;;;;;5036375;28;20210;-78
2022/10/13 12:08:27;;;;;;;16.73;13.13;;;;;;;;;;5032473;28;20178;-77
2022/10/13 12:10:56;;;;;;;16.23;11.87;;;;;;;;;;5031789;28;20194;-78
2022/10/13 12:13:29;;;;;;;17.43;12.00;;;;;;;;;;5028481;28;20976;-78
2022/10/13 12:16:05;;;;;;;18.70;12.57;;;;;;;;;;5060081;28;20970;-78
2022/10/13 12:18:37;;;;;;;17.40;12.67;;;;;;;;;;5035624;28;20193;-78
2022/10/13 12:21:08;;;;;;;19.20;12.70;;;;;;;;;;5045542;28;20264;-79
2022/10/13 12:23:35;;;;;;;17.97;13.67;;;;;;;;;;5034054;28;20288;-77
2022/10/13 12:26:01;;;;;;;18.63;13.30;;;;;;;;;;5031613;28;20220;-78
2022/10/13 12:28:43;;;;;;;18.93;13.37;;;;;;;;;;5029902;28;20181;-77
2022/10/13 12:31:17;;;;;;;23.23;14.57;;;;;;;;;;5047737;28;20181;-77
2022/10/13 12:33:43;;;;;;;19.73;14.10;;;;;;;;;;5034879;28;20206;-76
2022/10/13 12:36:16;;;;;;;20.00;14.27;;;;;;;;;;5039997;28;20416;-78
2022/10/13 12:38:45;;;;;;;18.20;14.03;;;;;;;;;;5047288;28;20230;-79
2022/10/13 12:41:11;;;;;;;19.27;14.80;;;;;;;;;;5032427;28;20725;-78
2022/10/13 12:43:38;;;;;;;20.50;15.80;;;;;;;;;;5045173;28;20209;-79
2022/10/13 12:46:06;;;;;;;23.52;17.08;;;;;;;;;;5041620;28;20411;-79
2022/10/13 12:48:35;;;;;;;21.83;14.20;;;;;;;;;;5047192;28;20189;-78
2022/10/13 12:51:14;;;;;;;15.97;13.43;;;;;;;;;;5047305;28;20179;-78
2022/10/13 12:53:40;;;;;;;21.60;13.73;;;;;;;;;;5061117;28;20201;-76
2022/10/13 12:56:07;;;;;;;22.87;14.00;;;;;;;;;;5048044;28;20181;-76
2022/10/13 12:58:34;;;;;;;16.67;12.70;;;;;;;;;;5035321;28;20193;-78
2022/10/13 13:01:08;;;;;;;21.43;13.23;;;;;;;;;;5031856;28;20581;-76
2022/10/13 13:03:36;;;;;;;18.80;13.50;;;;;;;;;;5044036;28;20210;-77
2022/10/13 13:06:08;;;;;;;18.30;12.70;;;;;;;;;;5041792;28;20197;-78
2022/10/13 13:08:34;;;;;;;14.80;12.27;;;;;;;;;;5040158;28;20178;-77
2022/10/13 13:11:05;;;;;;;17.40;12.93;;;;;;;;;;5046679;28;20178;-77
2022/10/13 13:13:32;;;;;;;19.23;13.03;;;;;;;;;;5044905;28;20754;-77
2022/10/13 13:16:14;;;;;;;18.77;13.73;;;;;;;;;;5050195;28;20216;-79
2022/10/13 13:18:42;;;;;;;19.70;13.77;;;;;;;;;;5048977;28;20521;-79
2022/10/13 13:21:09;;;;;;;19.63;13.70;;;;;;;;;;5051462;28;20188;-80
2022/10/13 13:23:38;;;;;;;16.57;12.60;;;;;;;;;;5053584;28;20209;-77
2022/10/13 13:26:21;;;;;;;18.40;14.17;;;;;;;;;;5046271;28;20718;-77
2022/10/13 13:28:49;;;;;;;19.27;14.60;;;;;;;;;;5042813;28;20193;-80
2022/10/13 13:31:17;;;;;;;20.13;15.67;;;;;;;;;;5056527;28;20206;-80
2022/10/13 13:33:43;;;;;;;19.97;15.00;;;;;;;;;;5053770;28;20221;-78
2022/10/13 13:36:20;;;;;;;19.00;15.07;;;;;;;;;;5046021;28;20188;-82
2022/10/13 13:38:47;;;;;;;22.13;16.20;;;;;;;;;;5044167;28;20703;-82
2022/10/13 13:41:14;;;;;;;21.30;15.40;;;;;;;;;;5051354;28;20179;-82
2022/10/13 13:43:40;;;;;;;17.50;14.73;;;;;;;;;;5052876;28;20304;-81
2022/10/13 13:46:07;;;;;;;18.33;14.80;;;;;;;;;;5050655;28;20173;-82
2022/10/13 13:48:33;;;;;;;17.90;14.07;;;;;;;;;;5048756;28;20190;-81
2022/10/13 13:51:01;;;;;;;18.07;15.17;;;;;;;;;;5065862;28;20186;-81
2022/10/13 13:53:27;;;;;;;18.93;13.60;;;;;;;;;;5054177;28;20218;-82
2022/10/13 13:55:53;;;;;;;20.10;15.13;;;;;;;;;;5056851;28;20864;-82
2022/10/13 13:58:20;;;;;;;20.20;15.93;;;;;;;;;;5054681;28;20219;-82
2022/10/13 14:00:46;;;;;;;24.33;17.57;;;;;;;;;;5049639;28;20186;-77
2022/10/13 14:03:12;;;;;;;20.47;16.03;;;;;;;;;;5049192;28;20202;-74
2022/10/13 14:05:40;;;;;;;21.77;16.63;;;;;;;;;;5043665;28;20222;-75
2022/10/13 14:08:06;;;;;;;21.07;15.07;;;;;;;;;;5044046;28;20174;-85
2022/10/13 14:10:32;;;;;;;17.90;12.93;;;;;;;;;;5031361;28;20277;-76
2022/10/13 14:12:59;;;;;;;17.10;14.10;;;;;;;;;;5044782;28;20232;-78
2022/10/13 14:15:25;;;;;;;18.33;12.60;;;;;;;;;;5031762;28;20253;-83
2022/10/13 14:17:52;;;;;;;15.87;12.83;;;;;;;;;;5061126;28;20200;-77
2022/10/13 14:20:18;;;;;;;16.60;12.30;;;;;;;;;;5046798;28;20219;-79
2022/10/13 14:22:45;;;;;;;19.80;13.43;;;;;;;;;;5045683;28;20270;-77
2022/10/13 14:25:12;;;;;;;17.67;12.40;;;;;;;;;;5043912;28;20214;-77
2022/10/13 14:27:39;;;;;;;13.93;11.23;;;;;;;;;;5045901;28;20182;-78